Time;durP1;ratioP1;P1;durP2;ratioP2;P2;SDS_P1;SDS_P2;PMS_P1;PMS_P2;Temp;Humidity;BMP_temperature;BMP_pressure;BME280_temperature;BME280_humidity;BME280_pressure;Samples;Min_cycle;Max_cycle;Signal;HPM_P1;HPM_P2
2022/01/16 00:05:35;;;;;;;27.40;13.73;;;;;;;;;;4738926;30;20625;-87
2022/01/16 00:08:40;;;;;;;33.90;14.77;;;;;;;;;;4762499;30;20560;-88
2022/01/16 00:11:45;;;;;;;38.43;15.70;;;;;;;;;;4752240;30;20583;-88
2022/01/16 00:14:51;;;;;;;32.47;14.50;;;;;;;;;;4751688;30;20620;-88
2022/01/16 00:20:59;;;;;;;33.53;15.37;;;;;;;;;;4744586;30;20556;-88
2022/01/16 00:24:04;;;;;;;34.10;14.87;;;;;;;;;;4740185;30;20683;-88
2022/01/16 00:27:08;;;;;;;31.83;14.37;;;;;;;;;;4762121;30;20614;-88
2022/01/16 00:30:13;;;;;;;28.53;14.33;;;;;;;;;;4741738;30;20560;-88
2022/01/16 00:33:18;;;;;;;33.07;14.40;;;;;;;;;;4751904;30;21210;-90
2022/01/16 00:36:22;;;;;;;36.80;15.63;;;;;;;;;;4751231;30;20580;-90
2022/01/16 00:39:27;;;;;;;32.20;14.97;;;;;;;;;;4740155;30;21275;-90
2022/01/16 00:42:31;;;;;;;29.87;15.23;;;;;;;;;;4741474;30;20643;-90
2022/01/16 00:45:35;;;;;;;32.30;15.03;;;;;;;;;;4751626;30;20548;-90
2022/01/16 00:48:40;;;;;;;36.23;15.40;;;;;;;;;;4751337;30;20615;-90
2022/01/16 00:51:44;;;;;;;35.97;15.53;;;;;;;;;;4743440;30;20644;-89
2022/01/16 00:54:48;;;;;;;34.30;15.27;;;;;;;;;;4743773;30;20565;-90
2022/01/16 00:57:52;;;;;;;34.87;15.93;;;;;;;;;;4733389;30;20627;-90
2022/01/16 01:00:56;;;;;;;34.10;16.30;;;;;;;;;;4743294;30;20628;-90
2022/01/16 01:04:00;;;;;;;37.00;15.63;;;;;;;;;;4723234;30;20701;-90
2022/01/16 01:07:04;;;;;;;36.10;17.20;;;;;;;;;;4736522;30;20611;-90
2022/01/16 01:10:08;;;;;;;37.00;16.30;;;;;;;;;;4731054;30;21158;-90
2022/01/16 01:13:22;;;;;;;34.43;16.33;;;;;;;;;;4741024;30;20639;-90
2022/01/16 01:16:38;;;;;;;34.93;15.83;;;;;;;;;;4771662;30;20614;-90
2022/01/16 01:19:42;;;;;;;32.00;15.33;;;;;;;;;;4741106;30;20563;-90
2022/01/16 01:22:48;;;;;;;30.43;14.93;;;;;;;;;;4771067;30;20639;-90
2022/01/16 01:25:53;;;;;;;37.80;15.50;;;;;;;;;;4750557;30;20572;-90
2022/01/16 01:28:57;;;;;;;32.13;14.37;;;;;;;;;;4750805;30;20556;-90
2022/01/16 01:32:02;;;;;;;28.03;14.50;;;;;;;;;;4750324;30;20638;-90
2022/01/16 01:35:11;;;;;;;30.80;13.87;;;;;;;;;;4760675;30;20559;-90
2022/01/16 01:38:20;;;;;;;35.37;15.20;;;;;;;;;;4750496;30;20635;-90
2022/01/16 01:41:26;;;;;;;32.37;14.93;;;;;;;;;;4741059;30;20623;-90
2022/01/16 01:51:16;;;;;;;29.50;14.73;;;;;;;;;;4732637;30;20584;-90
2022/01/16 01:54:20;;;;;;;31.97;15.67;;;;;;;;;;4727761;30;20568;-90
2022/01/16 01:57:24;;;;;;;33.97;16.33;;;;;;;;;;4733062;30;20910;-90
2022/01/16 02:00:28;;;;;;;36.03;15.83;;;;;;;;;;4732884;30;20580;-90
2022/01/16 02:06:46;;;;;;;32.87;15.43;;;;;;;;;;4732576;30;20577;-90
2022/01/16 02:09:50;;;;;;;30.03;14.60;;;;;;;;;;4732663;30;20557;-90
2022/01/16 02:13:00;;;;;;;36.40;16.47;;;;;;;;;;4742318;30;20728;-90
2022/01/16 02:35:28;;;;;;;31.50;13.50;;;;;;;;;;4759964;30;20560;-90
2022/01/16 02:38:32;;;;;;;28.37;13.03;;;;;;;;;;4749676;30;20583;-90
2022/01/16 02:41:36;;;;;;;28.70;13.80;;;;;;;;;;4739656;30;20572;-90
2022/01/16 02:44:48;;;;;;;26.87;13.83;;;;;;;;;;4739413;30;20624;-90
2022/01/16 02:47:54;;;;;;;29.87;13.77;;;;;;;;;;4739764;30;20583;-90
2022/01/16 02:50:58;;;;;;;32.40;13.97;;;;;;;;;;4749430;30;20591;-90
2022/01/16 02:54:02;;;;;;;28.73;13.67;;;;;;;;;;4739302;30;21249;-89
2022/01/16 02:57:09;;;;;;;26.60;13.43;;;;;;;;;;4749580;30;20580;-89
2022/01/16 03:00:14;;;;;;;26.83;12.73;;;;;;;;;;4759632;30;20574;-90
2022/01/16 03:03:18;;;;;;;25.50;12.77;;;;;;;;;;4759326;30;20643;-90
2022/01/16 03:06:27;;;;;;;27.00;13.47;;;;;;;;;;4759941;30;20910;-90
2022/01/16 03:10:04;;;;;;;26.90;12.03;;;;;;;;;;4759689;30;20579;-90
2022/01/16 03:12:56;;;;;;;25.27;12.27;;;;;;;;;;4749165;30;21001;-90
2022/01/16 03:16:01;;;;;;;28.93;14.20;;;;;;;;;;4744058;30;20648;-90
2022/01/16 03:22:32;;;;;;;28.13;13.60;;;;;;;;;;4751773;30;20652;-90
2022/01/16 03:25:36;;;;;;;33.60;14.40;;;;;;;;;;4731515;30;20663;-90
2022/01/16 03:28:40;;;;;;;26.43;13.67;;;;;;;;;;4741872;30;20585;-90
2022/01/16 03:31:44;;;;;;;25.37;12.33;;;;;;;;;;4741633;30;20596;-89
2022/01/16 03:34:49;;;;;;;26.57;12.50;;;;;;;;;;4741558;30;20588;-90
2022/01/16 03:37:53;;;;;;;31.63;13.33;;;;;;;;;;4741919;30;20906;-90
2022/01/16 03:40:57;;;;;;;31.57;14.10;;;;;;;;;;4731440;30;21148;-90
2022/01/16 03:44:02;;;;;;;28.07;13.10;;;;;;;;;;4741347;30;20657;-90
2022/01/16 03:47:07;;;;;;;27.07;13.17;;;;;;;;;;4741505;30;20577;-90
2022/01/16 03:50:11;;;;;;;31.90;12.43;;;;;;;;;;4731556;30;20565;-90
2022/01/16 03:53:17;;;;;;;28.67;12.70;;;;;;;;;;4731983;30;20656;-90
2022/01/16 03:56:21;;;;;;;28.20;12.63;;;;;;;;;;4744845;30;20612;-90
2022/01/16 03:59:25;;;;;;;27.43;13.30;;;;;;;;;;4742092;30;20626;-90
2022/01/16 04:02:30;;;;;;;28.90;12.40;;;;;;;;;;4752238;30;20647;-90
2022/01/16 04:05:34;;;;;;;27.63;12.83;;;;;;;;;;4762107;30;20627;-90
2022/01/16 04:08:38;;;;;;;25.83;12.23;;;;;;;;;;4751846;30;20630;-90
2022/01/16 04:11:51;;;;;;;28.23;12.93;;;;;;;;;;4752037;30;20619;-89
2022/01/16 04:18:03;;;;;;;26.23;12.67;;;;;;;;;;4751840;30;21207;-89
2022/01/16 04:21:07;;;;;;;23.50;11.43;;;;;;;;;;4751827;30;21150;-90
2022/01/16 04:24:11;;;;;;;28.47;13.27;;;;;;;;;;4739725;30;20564;-90
2022/01/16 04:27:15;;;;;;;28.07;12.03;;;;;;;;;;4734272;30;21108;-89
2022/01/16 04:30:19;;;;;;;25.70;12.47;;;;;;;;;;4744122;30;20641;-90
2022/01/16 04:33:23;;;;;;;28.33;12.53;;;;;;;;;;4723931;30;20659;-88
2022/01/16 04:36:27;;;;;;;30.73;13.80;;;;;;;;;;4724405;30;20553;-89
2022/01/16 04:39:34;;;;;;;32.20;14.03;;;;;;;;;;4734137;30;20556;-89
2022/01/16 04:46:00;;;;;;;31.80;13.33;;;;;;;;;;4733624;30;20631;-90
2022/01/16 04:49:04;;;;;;;28.50;12.43;;;;;;;;;;4723917;30;20565;-90
2022/01/16 04:52:08;;;;;;;36.67;15.93;;;;;;;;;;4733942;30;20663;-86
2022/01/16 04:55:13;;;;;;;34.13;14.17;;;;;;;;;;4724201;30;20553;-85
2022/01/16 04:58:19;;;;;;;32.87;14.07;;;;;;;;;;4738061;30;20611;-86
2022/01/16 05:01:23;;;;;;;32.53;13.23;;;;;;;;;;4761267;30;20579;-86
2022/01/16 05:04:27;;;;;;;32.97;14.83;;;;;;;;;;4750733;30;20560;-85
2022/01/16 05:07:31;;;;;;;35.10;14.80;;;;;;;;;;4755191;30;20616;-86
2022/01/16 05:10:36;;;;;;;37.73;15.40;;;;;;;;;;4733491;30;20568;-86
2022/01/16 05:16:43;;;;;;;41.80;16.43;;;;;;;;;;4743480;30;20588;-86
2022/01/16 05:19:47;;;;;;;36.57;15.93;;;;;;;;;;4733316;30;20564;-85
2022/01/16 05:22:52;;;;;;;40.70;16.43;;;;;;;;;;4733497;30;20647;-84
2022/01/16 05:25:56;;;;;;;39.77;16.93;;;;;;;;;;4743230;30;20689;-86
2022/01/16 05:29:02;;;;;;;36.30;15.73;;;;;;;;;;4743209;30;20989;-85
2022/01/16 05:32:06;;;;;;;40.90;17.53;;;;;;;;;;4733041;30;21004;-86
2022/01/16 05:35:10;;;;;;;48.10;18.13;;;;;;;;;;4743198;30;20568;-86
2022/01/16 05:38:15;;;;;;;40.30;18.07;;;;;;;;;;4733061;30;20902;-85
2022/01/16 05:41:20;;;;;;;45.03;17.77;;;;;;;;;;4732987;30;20588;-86
2022/01/16 05:44:24;;;;;;;39.97;18.07;;;;;;;;;;4742729;30;20962;-85
2022/01/16 05:47:28;;;;;;;46.40;18.50;;;;;;;;;;4742978;30;20568;-86
2022/01/16 05:50:40;;;;;;;42.70;18.33;;;;;;;;;;4732821;30;20634;-86
2022/01/16 05:54:07;;;;;;;43.33;17.90;;;;;;;;;;4732399;30;20643;-87
2022/01/16 05:57:12;;;;;;;37.83;17.23;;;;;;;;;;4742523;30;20623;-87
2022/01/16 06:00:16;;;;;;;37.43;16.67;;;;;;;;;;4732385;30;20580;-87
2022/01/16 06:03:21;;;;;;;35.20;16.70;;;;;;;;;;4742371;30;20664;-87
2022/01/16 06:06:25;;;;;;;41.43;19.07;;;;;;;;;;4732509;30;20619;-87
2022/01/16 06:09:30;;;;;;;42.87;17.43;;;;;;;;;;4742627;30;20605;-86
2022/01/16 06:12:34;;;;;;;41.17;17.43;;;;;;;;;;4732463;30;20632;-87
2022/01/16 06:15:40;;;;;;;41.23;17.77;;;;;;;;;;4732538;30;20552;-87
2022/01/16 06:18:44;;;;;;;40.20;17.07;;;;;;;;;;4742203;30;20623;-87
2022/01/16 06:21:49;;;;;;;44.77;18.77;;;;;;;;;;4742380;30;20560;-87
2022/01/16 06:24:53;;;;;;;43.73;18.67;;;;;;;;;;4732337;30;20584;-87
2022/01/16 06:27:57;;;;;;;43.10;19.57;;;;;;;;;;4742449;30;20556;-87
2022/01/16 06:31:02;;;;;;;46.27;19.43;;;;;;;;;;4732388;30;20560;-87
2022/01/16 06:34:07;;;;;;;44.33;19.57;;;;;;;;;;4732008;30;20632;-87
2022/01/16 06:37:11;;;;;;;45.23;18.53;;;;;;;;;;4742208;30;20588;-87
2022/01/16 06:40:15;;;;;;;45.13;19.17;;;;;;;;;;4731898;30;20572;-87
2022/01/16 06:43:19;;;;;;;46.83;20.20;;;;;;;;;;4732366;30;20648;-87
2022/01/16 06:46:24;;;;;;;41.70;19.13;;;;;;;;;;4731762;30;20640;-87
2022/01/16 06:49:28;;;;;;;49.70;21.57;;;;;;;;;;4732262;30;20973;-87
2022/01/16 06:52:32;;;;;;;47.43;21.23;;;;;;;;;;4741514;30;20663;-87
2022/01/16 06:55:36;;;;;;;45.83;20.07;;;;;;;;;;4721906;30;20580;-87
2022/01/16 06:58:41;;;;;;;52.03;24.33;;;;;;;;;;4731934;30;20564;-87
2022/01/16 07:01:45;;;;;;;45.23;21.90;;;;;;;;;;4742174;30;21108;-87
2022/01/16 07:04:49;;;;;;;44.07;20.10;;;;;;;;;;4731961;30;20942;-87
2022/01/16 07:07:53;;;;;;;49.60;21.80;;;;;;;;;;4741448;30;20616;-86
2022/01/16 07:10:59;;;;;;;47.93;21.97;;;;;;;;;;4731901;30;20584;-87
2022/01/16 07:14:03;;;;;;;53.90;23.17;;;;;;;;;;4741420;30;20648;-87
2022/01/16 07:17:07;;;;;;;55.37;23.57;;;;;;;;;;4741866;30;20556;-87
2022/01/16 07:20:14;;;;;;;47.10;21.93;;;;;;;;;;4741575;30;20635;-87
2022/01/16 07:23:18;;;;;;;53.23;23.10;;;;;;;;;;4722065;30;21235;-86
2022/01/16 07:26:23;;;;;;;52.00;23.37;;;;;;;;;;4721570;30;20652;-87
2022/01/16 07:29:28;;;;;;;50.37;21.63;;;;;;;;;;4723716;30;20615;-87
2022/01/16 07:32:33;;;;;;;56.20;23.50;;;;;;;;;;4735034;30;20639;-87
2022/01/16 07:35:38;;;;;;;49.87;22.77;;;;;;;;;;4735262;30;20584;-87
2022/01/16 07:38:42;;;;;;;52.67;23.30;;;;;;;;;;4761592;30;20607;-87
2022/01/16 07:41:46;;;;;;;51.93;23.27;;;;;;;;;;4742312;30;20580;-87
2022/01/16 07:44:51;;;;;;;54.53;24.10;;;;;;;;;;4741256;30;20627;-87
2022/01/16 07:47:55;;;;;;;47.90;22.13;;;;;;;;;;4745010;30;20614;-87
2022/01/16 07:50:59;;;;;;;58.43;29.60;;;;;;;;;;4754686;30;20615;-87
2022/01/16 07:54:03;;;;;;;56.53;29.20;;;;;;;;;;4734771;30;20677;-87
2022/01/16 07:57:07;;;;;;;53.67;24.27;;;;;;;;;;4734409;30;20623;-87
2022/01/16 08:00:12;;;;;;;46.60;24.30;;;;;;;;;;4735088;30;20556;-86
2022/01/16 08:03:19;;;;;;;55.90;25.83;;;;;;;;;;4735968;30;20660;-86
2022/01/16 08:06:24;;;;;;;50.43;25.13;;;;;;;;;;4734760;30;20648;-86
2022/01/16 08:09:28;;;;;;;45.87;22.47;;;;;;;;;;4744776;30;20561;-86
2022/01/16 08:12:33;;;;;;;50.53;24.50;;;;;;;;;;4734534;30;20639;-86
2022/01/16 08:15:37;;;;;;;54.47;24.70;;;;;;;;;;4758850;30;20640;-86
2022/01/16 08:18:41;;;;;;;53.20;25.57;;;;;;;;;;4738308;30;20635;-86
2022/01/16 08:21:46;;;;;;;49.80;27.13;;;;;;;;;;4744338;30;20560;-86
2022/01/16 08:24:50;;;;;;;54.50;28.30;;;;;;;;;;4734281;30;20620;-87
2022/01/16 08:27:54;;;;;;;56.17;29.13;;;;;;;;;;4733986;30;20612;-87
2022/01/16 08:30:58;;;;;;;42.77;23.97;;;;;;;;;;4740957;30;20613;-86
2022/01/16 08:34:02;;;;;;;46.27;25.07;;;;;;;;;;4724383;30;20649;-87
2022/01/16 08:37:06;;;;;;;50.93;28.13;;;;;;;;;;4723872;30;20617;-87
2022/01/16 08:40:11;;;;;;;49.10;27.33;;;;;;;;;;4733836;30;20564;-87
2022/01/16 08:43:16;;;;;;;49.37;27.27;;;;;;;;;;4723560;30;20641;-87
2022/01/16 08:46:21;;;;;;;44.53;23.83;;;;;;;;;;4743651;30;20635;-86
2022/01/16 08:49:25;;;;;;;43.30;24.67;;;;;;;;;;4743788;30;20577;-87
2022/01/16 08:52:29;;;;;;;44.03;24.90;;;;;;;;;;4743295;30;20657;-87
2022/01/16 08:55:34;;;;;;;45.90;25.00;;;;;;;;;;4753531;30;20611;-87
2022/01/16 08:58:39;;;;;;;48.30;26.10;;;;;;;;;;4754675;30;20612;-87
2022/01/16 09:01:43;;;;;;;42.83;23.87;;;;;;;;;;4733897;30;20568;-87
2022/01/16 09:04:47;;;;;;;49.67;26.40;;;;;;;;;;4752509;30;20619;-86
2022/01/16 09:07:52;;;;;;;47.07;25.20;;;;;;;;;;4751421;30;20560;-86
2022/01/16 09:10:56;;;;;;;48.13;26.80;;;;;;;;;;4743103;30;20702;-87
2022/01/16 09:14:00;;;;;;;45.50;24.30;;;;;;;;;;4723878;30;20648;-86
2022/01/16 09:17:04;;;;;;;67.27;36.60;;;;;;;;;;4733457;30;20557;-87
2022/01/16 09:20:09;;;;;;;116.33;57.57;;;;;;;;;;4732401;30;20639;-86
2022/01/16 09:23:13;;;;;;;50.83;29.30;;;;;;;;;;4750521;30;20691;-86
2022/01/16 09:26:18;;;;;;;50.20;30.27;;;;;;;;;;4727624;30;20648;-86
2022/01/16 09:29:22;;;;;;;44.97;24.60;;;;;;;;;;4740670;30;20603;-86
2022/01/16 09:32:26;;;;;;;39.50;23.13;;;;;;;;;;4740269;30;20668;-87
2022/01/16 09:35:33;;;;;;;48.17;27.27;;;;;;;;;;4732947;30;21179;-87
2022/01/16 09:38:38;;;;;;;49.27;25.63;;;;;;;;;;4733124;30;20635;-87
2022/01/16 09:41:42;;;;;;;45.50;25.50;;;;;;;;;;4733067;30;20636;-87
2022/01/16 09:44:47;;;;;;;48.53;25.90;;;;;;;;;;4738623;30;20568;-87
2022/01/16 09:47:51;;;;;;;43.40;24.70;;;;;;;;;;4742560;30;20970;-86
2022/01/16 09:50:55;;;;;;;45.27;25.10;;;;;;;;;;4732117;30;20633;-86
2022/01/16 09:53:59;;;;;;;44.57;25.47;;;;;;;;;;4745598;30;20666;-86
2022/01/16 09:57:06;;;;;;;47.33;26.40;;;;;;;;;;4746131;30;20558;-86
2022/01/16 10:00:15;;;;;;;43.33;25.07;;;;;;;;;;4744575;30;20558;-87
2022/01/16 10:03:51;;;;;;;45.67;25.03;;;;;;;;;;4742701;30;20989;-87
2022/01/16 10:06:59;;;;;;;48.70;28.77;;;;;;;;;;4736616;30;20640;-86
2022/01/16 10:10:12;;;;;;;42.07;24.87;;;;;;;;;;4732620;30;20612;-86
2022/01/16 10:13:23;;;;;;;42.23;24.60;;;;;;;;;;4755663;30;20662;-87
2022/01/16 10:16:36;;;;;;;44.43;24.20;;;;;;;;;;4722533;30;20558;-87
2022/01/16 10:19:40;;;;;;;42.53;25.40;;;;;;;;;;4752773;30;20556;-87
2022/01/16 10:22:52;;;;;;;42.23;24.60;;;;;;;;;;4748809;30;20671;-86
2022/01/16 10:25:57;;;;;;;40.40;22.73;;;;;;;;;;4744920;30;20612;-87
2022/01/16 10:29:01;;;;;;;37.77;21.67;;;;;;;;;;4742572;30;20568;-87
2022/01/16 10:32:14;;;;;;;37.43;21.23;;;;;;;;;;4736563;30;20753;-86
2022/01/16 10:35:22;;;;;;;35.27;20.33;;;;;;;;;;4739387;30;20611;-85
2022/01/16 10:38:29;;;;;;;37.63;20.37;;;;;;;;;;4732535;30;20553;-87
2022/01/16 10:41:34;;;;;;;39.97;22.43;;;;;;;;;;4737585;30;20634;-86
2022/01/16 10:44:40;;;;;;;39.37;23.93;;;;;;;;;;4750540;30;20968;-92
2022/01/16 10:47:51;;;;;;;37.27;22.43;;;;;;;;;;4740064;30;21167;-87
2022/01/16 10:50:56;;;;;;;39.73;24.33;;;;;;;;;;4750178;30;20641;-86
2022/01/16 10:54:31;;;;;;;38.63;23.00;;;;;;;;;;4767076;24;21278;-90
2022/01/16 10:57:36;;;;;;;34.77;21.80;;;;;;;;;;4771984;30;21005;-91
2022/01/16 11:00:44;;;;;;;37.00;21.53;;;;;;;;;;4762512;30;20638;-90
2022/01/16 11:03:50;;;;;;;32.90;19.67;;;;;;;;;;4734795;30;20651;-91
2022/01/16 11:07:02;;;;;;;35.83;21.37;;;;;;;;;;4746614;30;20616;-90
2022/01/16 11:10:21;;;;;;;34.57;20.73;;;;;;;;;;4757039;30;20584;-91
2022/01/16 11:13:30;;;;;;;37.27;19.87;;;;;;;;;;4721852;30;20653;-90
2022/01/16 11:16:35;;;;;;;34.73;20.40;;;;;;;;;;4739859;30;20617;-91
2022/01/16 11:19:39;;;;;;;37.73;21.07;;;;;;;;;;4736820;30;20561;-91
2022/01/16 11:26:08;;;;;;;35.07;20.43;;;;;;;;;;4754477;30;20572;-91
2022/01/16 11:29:14;;;;;;;34.87;20.23;;;;;;;;;;4758194;30;20561;-91
2022/01/16 11:32:18;;;;;;;35.03;20.83;;;;;;;;;;4758984;30;20587;-91
2022/01/16 11:35:23;;;;;;;33.07;19.50;;;;;;;;;;4747537;30;20573;-92
2022/01/16 11:38:30;;;;;;;38.00;21.53;;;;;;;;;;4762310;30;20573;-91
2022/01/16 11:41:40;;;;;;;37.67;22.17;;;;;;;;;;4754490;30;20561;-92
2022/01/16 11:44:53;;;;;;;37.80;20.97;;;;;;;;;;4735069;30;20574;-92
2022/01/16 11:47:58;;;;;;;36.70;20.70;;;;;;;;;;4724437;30;20615;-92
2022/01/16 11:51:04;;;;;;;33.30;19.77;;;;;;;;;;4740457;30;21174;-91
2022/01/16 11:54:10;;;;;;;36.00;20.67;;;;;;;;;;4749840;30;20663;-90
2022/01/16 11:57:28;;;;;;;34.03;19.73;;;;;;;;;;4757918;30;20624;-92
2022/01/16 12:00:45;;;;;;;34.17;19.13;;;;;;;;;;4754705;30;20644;-91
2022/01/16 12:03:50;;;;;;;34.30;20.40;;;;;;;;;;4745417;30;20651;-91
2022/01/16 12:06:58;;;;;;;37.67;23.27;;;;;;;;;;4753481;30;20618;-90
2022/01/16 12:10:05;;;;;;;37.20;21.67;;;;;;;;;;4742866;30;20595;-91
2022/01/16 12:13:50;;;;;;;40.30;21.73;;;;;;;;;;4728432;30;20671;-90
2022/01/16 12:16:54;;;;;;;42.10;22.07;;;;;;;;;;4734812;30;21189;-90
2022/01/16 12:20:20;;;;;;;39.27;22.07;;;;;;;;;;4725757;30;20564;-90
2022/01/16 12:23:29;;;;;;;39.20;22.57;;;;;;;;;;4734815;30;20660;-90
2022/01/16 12:26:34;;;;;;;38.77;21.93;;;;;;;;;;4735137;30;20609;-90
2022/01/16 12:30:09;;;;;;;38.80;22.77;;;;;;;;;;4745094;30;20565;-90
2022/01/16 12:33:34;;;;;;;35.33;20.83;;;;;;;;;;4734984;30;20632;-90
2022/01/16 12:36:39;;;;;;;39.37;22.70;;;;;;;;;;4734955;30;20620;-90
2022/01/16 12:39:46;;;;;;;40.30;22.77;;;;;;;;;;4734283;30;20588;-89
2022/01/16 12:42:52;;;;;;;36.93;22.10;;;;;;;;;;4734678;30;20632;-92
2022/01/16 12:45:59;;;;;;;40.23;23.43;;;;;;;;;;4734817;30;20564;-89
2022/01/16 12:49:07;;;;;;;39.90;23.07;;;;;;;;;;4740353;30;20941;-91
2022/01/16 12:52:11;;;;;;;40.40;22.63;;;;;;;;;;4743682;30;21004;-87
2022/01/16 12:55:16;;;;;;;36.70;22.03;;;;;;;;;;4734436;30;20570;-87
2022/01/16 12:58:22;;;;;;;36.33;22.07;;;;;;;;;;4724656;30;20576;-89
2022/01/16 13:01:26;;;;;;;36.43;21.33;;;;;;;;;;4746278;30;20610;-89
2022/01/16 13:04:35;;;;;;;35.27;21.07;;;;;;;;;;4739436;30;20627;-87
2022/01/16 13:07:42;;;;;;;35.60;20.73;;;;;;;;;;4723948;30;20991;-89
2022/01/16 13:10:46;;;;;;;35.90;21.17;;;;;;;;;;4733855;30;20634;-89
2022/01/16 13:13:50;;;;;;;35.07;21.23;;;;;;;;;;4733489;30;20649;-89
2022/01/16 13:17:00;;;;;;;36.50;20.17;;;;;;;;;;4743655;30;20566;-88
2022/01/16 13:20:13;;;;;;;33.77;20.00;;;;;;;;;;4733861;30;20557;-90
2022/01/16 13:23:17;;;;;;;36.13;21.20;;;;;;;;;;4733680;30;20634;-88
2022/01/16 13:26:26;;;;;;;37.57;21.93;;;;;;;;;;4732952;30;20632;-88
2022/01/16 13:29:31;;;;;;;39.00;24.77;;;;;;;;;;4733434;30;20554;-88
2022/01/16 13:32:40;;;;;;;161.67;74.10;;;;;;;;;;4733855;30;20653;-89
2022/01/16 13:35:44;;;;;;;84.53;44.63;;;;;;;;;;4723581;30;21117;-89
2022/01/16 13:38:49;;;;;;;34.97;21.27;;;;;;;;;;4723714;30;20565;-89
2022/01/16 13:42:19;;;;;;;41.90;24.67;;;;;;;;;;4723745;30;20569;-90
2022/01/16 13:45:41;;;;;;;60.77;35.17;;;;;;;;;;4723247;30;20565;-88
2022/01/16 13:48:47;;;;;;;39.20;23.90;;;;;;;;;;4733190;30;20624;-88
2022/01/16 13:52:02;;;;;;;38.80;24.87;;;;;;;;;;4723190;30;20568;-89
2022/01/16 13:55:09;;;;;;;33.60;19.57;;;;;;;;;;4723365;30;20561;-90
2022/01/16 13:58:23;;;;;;;29.30;17.77;;;;;;;;;;4733365;30;20570;-87
2022/01/16 14:01:31;;;;;;;28.20;17.47;;;;;;;;;;4733055;30;20616;-90
2022/01/16 14:04:39;;;;;;;26.43;16.63;;;;;;;;;;4718058;30;20613;-91
2022/01/16 14:07:43;;;;;;;28.83;17.93;;;;;;;;;;4725426;30;20633;-88
2022/01/16 14:10:48;;;;;;;32.07;19.23;;;;;;;;;;4715059;30;20585;-90
2022/01/16 14:14:03;;;;;;;33.33;20.00;;;;;;;;;;4715872;30;20645;-89
2022/01/16 14:20:24;;;;;;;36.90;20.30;;;;;;;;;;4725252;30;20559;-89
2022/01/16 14:23:29;;;;;;;38.90;21.07;;;;;;;;;;4715132;30;20645;-87
2022/01/16 14:26:47;;;;;;;36.30;20.40;;;;;;;;;;4747511;30;20692;-86
2022/01/16 14:29:54;;;;;;;38.03;20.70;;;;;;;;;;4760230;30;20552;-90
2022/01/16 14:32:58;;;;;;;34.63;19.50;;;;;;;;;;4740285;30;20649;-87
2022/01/16 14:36:03;;;;;;;38.47;20.37;;;;;;;;;;4747208;30;20643;-91
2022/01/16 14:39:08;;;;;;;36.47;20.27;;;;;;;;;;4722656;30;20627;-88
2022/01/16 14:42:15;;;;;;;36.50;20.90;;;;;;;;;;4732439;30;20566;-91
2022/01/16 14:45:22;;;;;;;41.83;21.80;;;;;;;;;;4735001;30;20562;-91
2022/01/16 14:48:25;;;;;;;58.40;30.57;;;;;;;;;;4733333;30;20655;-90
2022/01/16 14:51:30;;;;;;;37.83;21.07;;;;;;;;;;4732180;30;21206;-90
2022/01/16 14:54:34;;;;;;;34.33;18.27;;;;;;;;;;4731936;30;20635;-89
2022/01/16 14:57:38;;;;;;;33.37;19.23;;;;;;;;;;4742563;30;21109;-88
2022/01/16 15:00:42;;;;;;;37.20;20.47;;;;;;;;;;4732304;30;20566;-90
2022/01/16 15:03:46;;;;;;;40.43;20.77;;;;;;;;;;4752493;30;20639;-89
2022/01/16 15:06:50;;;;;;;47.13;26.07;;;;;;;;;;4733091;30;20945;-91
2022/01/16 15:14:19;;;;;;;45.67;25.90;;;;;;;;;;4725576;30;20639;-91
2022/01/16 15:17:28;;;;;;;39.33;21.43;;;;;;;;;;4716626;30;21121;-86
2022/01/16 15:20:33;;;;;;;34.97;20.73;;;;;;;;;;4714472;30;20562;-88
2022/01/16 15:23:37;;;;;;;32.77;18.73;;;;;;;;;;4716505;30;21012;-90
2022/01/16 15:26:42;;;;;;;34.77;19.80;;;;;;;;;;4726080;30;20564;-86
2022/01/16 15:29:47;;;;;;;37.43;19.87;;;;;;;;;;4714831;30;20907;-86
2022/01/16 15:32:52;;;;;;;36.53;21.23;;;;;;;;;;4714349;30;20644;-91
2022/01/16 15:35:56;;;;;;;38.20;21.60;;;;;;;;;;4724735;30;20627;-91
2022/01/16 15:39:01;;;;;;;36.57;21.37;;;;;;;;;;4724146;30;20642;-89
2022/01/16 15:42:05;;;;;;;35.53;19.73;;;;;;;;;;4724078;30;20577;-90
2022/01/16 15:45:12;;;;;;;34.57;19.53;;;;;;;;;;4714917;30;20566;-86
2022/01/16 15:48:17;;;;;;;37.77;20.50;;;;;;;;;;4715084;30;20672;-91
2022/01/16 15:51:21;;;;;;;35.40;20.23;;;;;;;;;;4717942;30;20651;-91
2022/01/16 15:54:25;;;;;;;30.77;17.23;;;;;;;;;;4727988;30;20657;-87
2022/01/16 15:57:30;;;;;;;31.20;17.03;;;;;;;;;;4717409;30;20582;-89
2022/01/16 16:00:35;;;;;;;30.67;17.90;;;;;;;;;;4728111;30;20672;-88
2022/01/16 16:03:39;;;;;;;28.10;16.10;;;;;;;;;;4717189;30;20636;-86
2022/01/16 16:06:44;;;;;;;27.03;16.60;;;;;;;;;;4717731;30;20637;-87
2022/01/16 16:09:55;;;;;;;27.03;17.30;;;;;;;;;;4732144;30;20688;-91
2022/01/16 16:13:00;;;;;;;36.40;20.30;;;;;;;;;;4739706;30;20667;-91
2022/01/16 16:16:04;;;;;;;58.33;30.70;;;;;;;;;;4737566;30;20609;-91
2022/01/16 16:19:08;;;;;;;30.53;17.90;;;;;;;;;;4717992;30;20565;-86
2022/01/16 16:22:12;;;;;;;32.50;19.53;;;;;;;;;;4718797;30;20581;-88
2022/01/16 16:25:17;;;;;;;29.77;16.77;;;;;;;;;;4721415;30;20906;-89
2022/01/16 16:28:22;;;;;;;29.40;16.20;;;;;;;;;;4732982;30;21137;-88
2022/01/16 16:31:26;;;;;;;37.73;20.23;;;;;;;;;;4720061;30;21139;-85
2022/01/16 16:34:30;;;;;;;35.07;21.90;;;;;;;;;;4738822;30;20640;-86
2022/01/16 16:37:34;;;;;;;34.33;21.53;;;;;;;;;;4717290;30;20571;-87
2022/01/16 16:40:38;;;;;;;26.93;17.93;;;;;;;;;;4707714;30;20565;-89
2022/01/16 16:43:42;;;;;;;32.70;21.40;;;;;;;;;;4737063;30;20998;-89
2022/01/16 16:46:46;;;;;;;28.53;18.60;;;;;;;;;;4717423;30;20557;-87
2022/01/16 16:49:50;;;;;;;21.80;14.10;;;;;;;;;;4717384;30;20616;-88
2022/01/16 16:52:55;;;;;;;22.27;14.30;;;;;;;;;;4726448;30;20679;-87
2022/01/16 16:55:59;;;;;;;23.93;15.47;;;;;;;;;;4713212;30;20970;-88
2022/01/16 16:59:03;;;;;;;20.77;13.37;;;;;;;;;;4781746;24;20696;-88
2022/01/16 17:02:09;;;;;;;21.73;13.20;;;;;;;;;;4741021;30;20605;-86
2022/01/16 17:05:13;;;;;;;20.90;12.10;;;;;;;;;;4725257;30;20616;-89
2022/01/16 17:08:17;;;;;;;20.10;11.97;;;;;;;;;;4761296;30;20674;-88
2022/01/16 17:11:21;;;;;;;16.07;11.60;;;;;;;;;;4740962;30;20601;-86
2022/01/16 17:14:25;;;;;;;19.53;11.47;;;;;;;;;;4727140;30;20614;-89
2022/01/16 17:17:29;;;;;;;19.47;11.53;;;;;;;;;;4741102;30;20658;-87
2022/01/16 17:20:33;;;;;;;19.10;12.53;;;;;;;;;;4739823;30;21197;-88
2022/01/16 17:23:38;;;;;;;22.40;13.43;;;;;;;;;;4730667;30;21186;-86
2022/01/16 17:26:42;;;;;;;19.07;11.40;;;;;;;;;;4737545;30;20616;-87
2022/01/16 17:29:46;;;;;;;24.90;14.90;;;;;;;;;;4733449;30;20633;-86
2022/01/16 17:32:50;;;;;;;23.87;14.13;;;;;;;;;;4750522;30;20957;-88
2022/01/16 17:35:55;;;;;;;18.80;11.27;;;;;;;;;;4733814;30;20566;-86
2022/01/16 17:38:59;;;;;;;20.37;12.60;;;;;;;;;;4733649;30;20639;-89
2022/01/16 17:42:04;;;;;;;20.73;12.40;;;;;;;;;;4743616;30;20584;-88
2022/01/16 17:45:08;;;;;;;22.87;13.33;;;;;;;;;;4732864;30;20612;-88
2022/01/16 17:48:17;;;;;;;19.73;11.97;;;;;;;;;;4733239;30;20632;-87
2022/01/16 17:51:21;;;;;;;22.03;14.10;;;;;;;;;;4743484;30;20561;-88
2022/01/16 17:54:28;;;;;;;19.20;11.27;;;;;;;;;;4723510;30;20574;-89
2022/01/16 17:57:32;;;;;;;19.97;11.50;;;;;;;;;;4719021;30;20663;-90
2022/01/16 18:00:36;;;;;;;17.37;11.63;;;;;;;;;;4746956;30;20632;-89
2022/01/16 18:03:40;;;;;;;18.43;11.53;;;;;;;;;;4748540;30;20613;-87
2022/01/16 18:06:44;;;;;;;20.90;13.20;;;;;;;;;;4740163;30;20651;-86
2022/01/16 18:09:50;;;;;;;19.53;12.27;;;;;;;;;;4738818;30;20670;-87
2022/01/16 18:12:54;;;;;;;16.70;11.73;;;;;;;;;;4744550;30;20561;-90
2022/01/16 18:15:58;;;;;;;18.23;12.40;;;;;;;;;;4722392;30;20628;-88
2022/01/16 18:19:02;;;;;;;21.60;12.43;;;;;;;;;;4745530;30;20655;-88
2022/01/16 18:22:06;;;;;;;25.70;14.77;;;;;;;;;;4740093;30;20631;-88
2022/01/16 18:25:10;;;;;;;22.53;13.50;;;;;;;;;;4731904;30;21031;-88
2022/01/16 18:28:15;;;;;;;20.80;13.30;;;;;;;;;;4737396;30;20658;-90
2022/01/16 18:31:19;;;;;;;18.40;11.97;;;;;;;;;;4741250;30;20683;-90
2022/01/16 18:34:24;;;;;;;19.33;12.57;;;;;;;;;;4737811;30;20612;-90
2022/01/16 18:37:28;;;;;;;19.93;12.80;;;;;;;;;;4740198;30;20642;-90
2022/01/16 18:40:32;;;;;;;20.20;12.43;;;;;;;;;;4743185;30;20608;-90
2022/01/16 18:43:36;;;;;;;21.27;13.00;;;;;;;;;;4733449;30;20612;-89
2022/01/16 18:46:41;;;;;;;19.23;13.30;;;;;;;;;;4723938;30;20570;-90
2022/01/16 18:49:45;;;;;;;18.40;10.80;;;;;;;;;;4726722;30;20661;-90
2022/01/16 18:52:50;;;;;;;17.23;11.40;;;;;;;;;;4733505;30;20572;-89
2022/01/16 18:55:55;;;;;;;21.07;12.50;;;;;;;;;;4723431;30;20560;-90
2022/01/16 18:58:59;;;;;;;19.10;12.97;;;;;;;;;;4732819;30;20667;-90
2022/01/16 19:02:05;;;;;;;20.33;13.07;;;;;;;;;;4750533;30;20625;-90